Time;durP1;ratioP1;P1;durP2;ratioP2;P2;SDS_P1;SDS_P2;PMS_P1;PMS_P2;Temp;Humidity;BMP_temperature;BMP_pressure;BME280_temperature;BME280_humidity;BME280_pressure;Samples;Min_cycle;Max_cycle;Signal;HPM_P1;HPM_P2
2022/04/16 00:01:53;;;;;;;;;3.67;3.00;;;;;;;;5076284;27;45354;-70
2022/04/16 00:04:19;;;;;;;;;4.00;2.67;;;;;;;;5073609;28;45629;-70
2022/04/16 00:06:44;;;;;;;;;3.00;3.00;;;;;;;;5077860;27;45429;-70
2022/04/16 00:09:09;;;;;;;;;3.00;3.00;;;;;;;;5077388;27;45333;-71
2022/04/16 00:11:36;;;;;;;;;3.00;3.00;;;;;;;;5074597;28;45334;-70
2022/04/16 00:14:03;;;;;;;;;4.50;4.50;;;;;;;;5075796;27;45434;-70
2022/04/16 00:16:28;;;;;;;;;3.00;3.00;;;;;;;;5074749;28;45405;-70
2022/04/16 00:18:56;;;;;;;;;4.67;3.67;;;;;;;;5076874;27;45578;-70
2022/04/16 00:21:22;;;;;;;;;3.00;3.00;;;;;;;;5074394;28;45329;-70
2022/04/16 00:23:48;;;;;;;;;3.00;3.00;;;;;;;;5077081;27;45355;-72
2022/04/16 00:26:13;;;;;;;;;17.75;16.00;;;;;;;;5073990;27;45458;-70
2022/04/16 00:28:39;;;;;;;;;21.50;21.00;;;;;;;;5075627;27;47207;-69
2022/04/16 00:31:04;;;;;;;;;18.75;16.75;;;;;;;;5073873;28;45551;-68
2022/04/16 00:33:31;;;;;;;;;21.00;19.25;;;;;;;;5073159;28;45351;-70
2022/04/16 00:35:56;;;;;;;;;16.75;16.75;;;;;;;;5065767;27;45585;-72
2022/04/16 00:38:22;;;;;;;;;19.50;17.75;;;;;;;;5075096;27;46339;-72
2022/04/16 00:40:47;;;;;;;;;13.00;11.50;;;;;;;;5075222;27;45452;-71
2022/04/16 00:43:21;;;;;;;;;9.50;8.75;;;;;;;;5077604;27;45437;-71
2022/04/16 00:45:47;;;;;;;;;11.00;11.00;;;;;;;;5076926;27;45388;-71
2022/04/16 00:48:12;;;;;;;;;8.50;7.75;;;;;;;;5077231;27;45393;-71
2022/04/16 00:50:37;;;;;;;;;9.50;9.50;;;;;;;;5073986;27;45480;-71
2022/04/16 00:53:03;;;;;;;;;8.75;8.75;;;;;;;;5074898;28;45285;-71
2022/04/16 00:55:29;;;;;;;;;7.75;7.75;;;;;;;;5074847;27;45327;-71
2022/04/16 00:57:54;;;;;;;;;8.75;7.25;;;;;;;;5074095;28;46252;-72
2022/04/16 01:00:20;;;;;;;;;9.25;7.25;;;;;;;;5073691;28;45353;-71
2022/04/16 01:02:46;;;;;;;;;7.00;7.00;;;;;;;;5075977;27;45346;-71
2022/04/16 01:05:12;;;;;;;;;5.00;5.00;;;;;;;;5073132;27;45473;-71
2022/04/16 01:07:47;;;;;;;;;7.25;7.25;;;;;;;;5075177;27;47442;-71
2022/04/16 01:10:12;;;;;;;;;7.00;7.00;;;;;;;;5072274;27;45465;-72
2022/04/16 01:12:37;;;;;;;;;7.00;6.00;;;;;;;;5074135;28;45328;-71
2022/04/16 01:15:02;;;;;;;;;6.25;6.25;;;;;;;;5073507;28;45517;-71
2022/04/16 01:17:28;;;;;;;;;5.50;5.00;;;;;;;;5076827;28;45402;-71
2022/04/16 01:19:53;;;;;;;;;6.25;5.75;;;;;;;;5078647;27;45486;-71
2022/04/16 01:22:20;;;;;;;;;4.00;4.00;;;;;;;;5080643;27;45445;-71
2022/04/16 01:24:48;;;;;;;;;4.50;4.50;;;;;;;;5076939;28;45519;-71
2022/04/16 01:27:14;;;;;;;;;5.00;5.00;;;;;;;;5077259;27;47321;-71
2022/04/16 01:29:40;;;;;;;;;5.00;5.00;;;;;;;;5076226;28;45442;-72
2022/04/16 01:32:06;;;;;;;;;6.75;5.75;;;;;;;;5077541;27;45362;-71
2022/04/16 01:34:32;;;;;;;;;3.50;3.50;;;;;;;;5078053;27;45524;-71
2022/04/16 01:37:01;;;;;;;;;5.00;5.00;;;;;;;;5077491;27;46573;-72
2022/04/16 01:39:26;;;;;;;;;8.25;5.75;;;;;;;;5079222;27;45482;-71
2022/04/16 01:41:51;;;;;;;;;5.25;5.00;;;;;;;;5080050;27;45449;-71
2022/04/16 01:44:17;;;;;;;;;4.50;4.50;;;;;;;;5077420;27;45392;-72
2022/04/16 01:46:42;;;;;;;;;5.25;5.00;;;;;;;;5077291;28;46030;-72
2022/04/16 01:49:10;;;;;;;;;4.75;4.75;;;;;;;;5075977;27;45590;-71
2022/04/16 01:51:35;;;;;;;;;6.00;5.00;;;;;;;;5077049;27;45523;-71
2022/04/16 01:54:00;;;;;;;;;5.00;3.50;;;;;;;;5076609;28;45318;-71
2022/04/16 01:56:25;;;;;;;;;5.75;5.50;;;;;;;;5077086;27;46111;-71
2022/04/16 01:58:50;;;;;;;;;6.75;4.00;;;;;;;;5073892;28;45326;-70
2022/04/16 02:01:16;;;;;;;;;6.00;6.00;;;;;;;;5076720;28;45436;-71
2022/04/16 02:03:41;;;;;;;;;4.50;4.50;;;;;;;;5076878;28;45472;-71
2022/04/16 02:06:06;;;;;;;;;4.33;4.33;;;;;;;;5077863;27;45496;-71
2022/04/16 02:08:31;;;;;;;;;4.00;4.00;;;;;;;;5075464;28;45459;-71
2022/04/16 02:10:57;;;;;;;;;4.50;4.50;;;;;;;;5078015;27;45206;-72
2022/04/16 02:13:22;;;;;;;;;5.75;5.75;;;;;;;;5076415;28;45391;-71
2022/04/16 02:15:47;;;;;;;;;9.25;6.50;;;;;;;;5076612;28;45641;-72
2022/04/16 02:18:12;;;;;;;;;4.00;4.00;;;;;;;;5076684;28;45447;-72
2022/04/16 02:20:38;;;;;;;;;4.67;4.67;;;;;;;;5075919;28;45188;-72
2022/04/16 02:23:04;;;;;;;;;6.00;6.00;;;;;;;;5061237;27;45563;-71
2022/04/16 02:25:31;;;;;;;;;5.00;5.00;;;;;;;;5076530;28;45596;-71
2022/04/16 02:27:56;;;;;;;;;5.00;5.00;;;;;;;;5075215;27;45581;-71
2022/04/16 02:30:22;;;;;;;;;6.50;4.50;;;;;;;;5075464;27;45536;-72
2022/04/16 02:32:52;;;;;;;;;5.00;5.00;;;;;;;;5079375;27;45389;-71
2022/04/16 02:35:17;;;;;;;;;5.50;4.00;;;;;;;;5077749;27;47322;-71
2022/04/16 02:37:42;;;;;;;;;5.25;5.25;;;;;;;;5074454;28;45448;-71
2022/04/16 02:40:08;;;;;;;;;6.00;6.00;;;;;;;;5077793;27;45336;-71
2022/04/16 02:42:34;;;;;;;;;5.50;4.75;;;;;;;;5076119;28;45483;-71
2022/04/16 02:47:43;;;;;;;;;6.00;6.00;;;;;;;;5063323;27;45496;-71
2022/04/16 02:50:09;;;;;;;;;3.75;3.75;;;;;;;;5076244;27;45540;-71
2022/04/16 02:52:36;;;;;;;;;4.75;4.75;;;;;;;;5072160;27;45264;-72
2022/04/16 02:55:03;;;;;;;;;6.00;6.00;;;;;;;;5075482;28;46336;-72
2022/04/16 02:57:28;;;;;;;;;8.75;4.75;;;;;;;;5074505;28;45404;-70
2022/04/16 02:59:53;;;;;;;;;4.00;4.00;;;;;;;;5075820;27;45334;-71
2022/04/16 03:02:18;;;;;;;;;6.00;4.75;;;;;;;;5075815;27;45402;-71
2022/04/16 03:04:44;;;;;;;;;6.25;6.25;;;;;;;;5071759;27;45447;-71
2022/04/16 03:07:09;;;;;;;;;6.50;5.00;;;;;;;;5071241;28;45471;-71
2022/04/16 03:09:35;;;;;;;;;5.25;5.25;;;;;;;;5076018;28;45547;-71
2022/04/16 03:12:01;;;;;;;;;8.25;6.50;;;;;;;;5075722;27;45387;-71
2022/04/16 03:19:54;;;;;;;;;4.75;4.75;;;;;;;;5075681;28;45587;-71
2022/04/16 03:22:19;;;;;;;;;3.50;3.50;;;;;;;;5075417;28;45352;-71
2022/04/16 03:24:44;;;;;;;;;5.25;5.25;;;;;;;;5072572;28;46461;-71
2022/04/16 03:27:10;;;;;;;;;5.25;5.25;;;;;;;;5065791;27;45704;-71
2022/04/16 03:29:35;;;;;;;;;5.25;5.25;;;;;;;;5075773;28;45529;-71
2022/04/16 03:32:00;;;;;;;;;4.25;4.25;;;;;;;;5066377;27;45451;-71
2022/04/16 03:34:25;;;;;;;;;4.00;4.00;;;;;;;;5075025;28;45497;-71
2022/04/16 03:36:51;;;;;;;;;4.75;4.75;;;;;;;;5076697;27;45460;-72
2022/04/16 03:39:16;;;;;;;;;5.00;5.00;;;;;;;;5074802;28;45354;-71
2022/04/16 03:41:41;;;;;;;;;4.00;3.25;;;;;;;;5077523;27;45485;-71
2022/04/16 03:44:07;;;;;;;;;7.75;6.00;;;;;;;;5070082;27;45541;-71
2022/04/16 03:46:32;;;;;;;;;5.00;5.00;;;;;;;;5076145;27;46073;-71
2022/04/16 03:48:59;;;;;;;;;5.25;5.00;;;;;;;;5075429;28;45413;-71
2022/04/16 03:51:26;;;;;;;;;4.50;4.50;;;;;;;;5075768;28;45560;-71
2022/04/16 03:53:51;;;;;;;;;6.50;6.50;;;;;;;;5076381;27;46127;-71
2022/04/16 04:01:45;;;;;;;;;5.00;5.00;;;;;;;;5073835;28;45449;-71
2022/04/16 04:04:10;;;;;;;;;4.50;4.50;;;;;;;;5074075;28;47882;-71
2022/04/16 04:06:36;;;;;;;;;7.75;6.00;;;;;;;;5074835;27;45282;-71
2022/04/16 04:09:01;;;;;;;;;5.00;4.75;;;;;;;;5075984;27;45446;-71
2022/04/16 04:11:26;;;;;;;;;5.25;5.25;;;;;;;;5058518;28;45528;-71
2022/04/16 04:13:51;;;;;;;;;5.25;5.00;;;;;;;;5075075;28;46480;-71
2022/04/16 04:16:19;;;;;;;;;5.00;5.00;;;;;;;;5074962;27;45576;-71
2022/04/16 04:18:44;;;;;;;;;7.00;5.50;;;;;;;;5075051;28;45283;-71
2022/04/16 04:21:09;;;;;;;;;6.00;6.00;;;;;;;;5074112;28;45469;-71
2022/04/16 04:23:34;;;;;;;;;6.00;5.00;;;;;;;;5075228;27;45661;-71
2022/04/16 04:26:00;;;;;;;;;4.00;4.00;;;;;;;;5075807;27;45481;-72
2022/04/16 04:28:25;;;;;;;;;6.00;6.00;;;;;;;;5070706;27;45542;-71
2022/04/16 04:30:50;;;;;;;;;6.00;4.75;;;;;;;;5074423;27;45410;-71
2022/04/16 04:33:15;;;;;;;;;4.00;4.00;;;;;;;;5074237;27;46424;-71
2022/04/16 04:35:40;;;;;;;;;4.00;3.67;;;;;;;;5075234;27;45374;-71
2022/04/16 04:38:06;;;;;;;;;5.00;5.00;;;;;;;;5075003;27;45448;-71
2022/04/16 04:40:31;;;;;;;;;6.00;6.00;;;;;;;;5074789;27;45489;-71
2022/04/16 04:42:56;;;;;;;;;7.00;6.00;;;;;;;;5073771;28;45454;-71
2022/04/16 04:45:21;;;;;;;;;4.00;4.00;;;;;;;;5073792;27;45368;-71
2022/04/16 04:47:47;;;;;;;;;5.75;5.75;;;;;;;;5074776;27;45709;-71
2022/04/16 04:50:12;;;;;;;;;5.50;5.50;;;;;;;;5075664;27;45343;-71
2022/04/16 04:52:38;;;;;;;;;5.00;5.00;;;;;;;;5080775;27;45539;-71
2022/04/16 04:55:06;;;;;;;;;6.00;5.50;;;;;;;;5074399;28;45320;-71
2022/04/16 04:57:31;;;;;;;;;5.25;5.25;;;;;;;;5079308;27;45603;-71
2022/04/16 04:59:56;;;;;;;;;5.67;4.67;;;;;;;;5079049;27;45410;-71
2022/04/16 05:02:21;;;;;;;;;5.75;5.75;;;;;;;;5077403;27;46435;-71
2022/04/16 05:04:47;;;;;;;;;6.50;5.25;;;;;;;;5080382;27;45375;-71
2022/04/16 05:07:12;;;;;;;;;5.50;5.50;;;;;;;;5077723;28;45480;-71
2022/04/16 05:09:37;;;;;;;;;6.00;5.00;;;;;;;;5073107;28;45501;-71
2022/04/16 05:12:03;;;;;;;;;6.50;6.25;;;;;;;;5078072;28;46578;-71
2022/04/16 05:14:29;;;;;;;;;5.00;3.67;;;;;;;;5076093;28;45394;-71
2022/04/16 05:16:54;;;;;;;;;5.67;5.67;;;;;;;;5078466;27;45571;-71
2022/04/16 05:19:19;;;;;;;;;5.50;5.50;;;;;;;;5078078;28;45456;-71
2022/04/16 05:21:44;;;;;;;;;6.00;5.00;;;;;;;;5077019;27;46534;-71
2022/04/16 05:24:10;;;;;;;;;5.00;5.00;;;;;;;;5080544;27;45371;-71
2022/04/16 05:26:35;;;;;;;;;5.00;5.00;;;;;;;;5077222;28;45444;-71
2022/04/16 05:29:01;;;;;;;;;5.00;5.00;;;;;;;;5078406;27;45445;-71
2022/04/16 05:31:27;;;;;;;;;6.75;6.00;;;;;;;;5077352;27;45433;-71
2022/04/16 05:36:40;;;;;;;;;7.00;4.75;;;;;;;;5077024;28;45635;-71
2022/04/16 05:39:06;;;;;;;;;5.50;5.50;;;;;;;;5077224;28;45410;-71
2022/04/16 05:41:34;;;;;;;;;5.00;5.00;;;;;;;;5076991;27;45482;-71
2022/04/16 05:44:00;;;;;;;;;6.00;4.75;;;;;;;;5074245;28;45518;-71
2022/04/16 05:46:25;;;;;;;;;5.25;5.25;;;;;;;;5076633;27;45490;-71
2022/04/16 05:48:50;;;;;;;;;5.50;5.50;;;;;;;;5077139;28;45615;-71
2022/04/16 05:51:16;;;;;;;;;5.25;4.75;;;;;;;;5078149;27;47458;-71
2022/04/16 05:53:41;;;;;;;;;5.75;5.75;;;;;;;;5078423;27;45358;-71
2022/04/16 05:56:08;;;;;;;;;6.50;5.50;;;;;;;;5078275;27;45378;-71
2022/04/16 05:58:33;;;;;;;;;5.50;5.50;;;;;;;;5077309;27;45579;-71
2022/04/16 06:00:58;;;;;;;;;7.00;5.25;;;;;;;;5078053;27;45991;-71
2022/04/16 06:03:24;;;;;;;;;5.25;5.25;;;;;;;;5076416;28;45429;-71
2022/04/16 06:05:50;;;;;;;;;4.25;4.25;;;;;;;;5067664;27;45424;-71
2022/04/16 06:08:16;;;;;;;;;6.75;5.25;;;;;;;;5077847;27;45341;-71
2022/04/16 06:10:41;;;;;;;;;4.00;4.00;;;;;;;;5080379;27;45594;-71
2022/04/16 06:13:06;;;;;;;;;6.00;6.00;;;;;;;;5071832;28;45280;-71
2022/04/16 06:15:32;;;;;;;;;7.50;5.50;;;;;;;;5068972;28;45332;-71
2022/04/16 06:17:57;;;;;;;;;4.50;4.50;;;;;;;;5079759;27;45574;-71
2022/04/16 06:20:23;;;;;;;;;7.00;5.00;;;;;;;;5077808;27;46140;-71
2022/04/16 06:22:48;;;;;;;;;6.25;6.25;;;;;;;;5074845;27;45457;-71
2022/04/16 06:25:13;;;;;;;;;5.50;4.50;;;;;;;;5080033;27;48661;-71
2022/04/16 06:27:39;;;;;;;;;4.75;4.75;;;;;;;;5076735;28;45453;-71
2022/04/16 06:30:08;;;;;;;;;4.75;4.75;;;;;;;;5075986;28;45492;-71
2022/04/16 06:32:33;;;;;;;;;5.50;5.50;;;;;;;;5066565;27;45493;-72
2022/04/16 06:34:58;;;;;;;;;5.00;5.00;;;;;;;;5077201;27;45549;-71
2022/04/16 06:37:24;;;;;;;;;7.00;7.00;;;;;;;;5079310;27;45230;-71
2022/04/16 06:39:49;;;;;;;;;4.67;4.67;;;;;;;;5076338;28;45524;-71
2022/04/16 06:42:14;;;;;;;;;4.50;4.50;;;;;;;;5079521;27;45483;-71
2022/04/16 06:44:39;;;;;;;;;3.50;3.50;;;;;;;;5076306;28;45332;-71
2022/04/16 06:47:04;;;;;;;;;5.00;5.00;;;;;;;;5077523;27;45459;-71
2022/04/16 06:49:30;;;;;;;;;5.25;5.25;;;;;;;;5078389;27;45323;-71
2022/04/16 06:51:55;;;;;;;;;6.25;5.00;;;;;;;;5075348;27;45258;-71
2022/04/16 06:54:20;;;;;;;;;5.50;5.50;;;;;;;;5079023;27;45521;-71
2022/04/16 06:56:45;;;;;;;;;4.50;4.25;;;;;;;;5076249;28;45595;-71
2022/04/16 06:59:10;;;;;;;;;5.25;5.25;;;;;;;;5075554;27;46724;-71
2022/04/16 07:01:36;;;;;;;;;2.50;2.50;;;;;;;;5078433;27;49411;-71
2022/04/16 07:04:01;;;;;;;;;5.00;5.00;;;;;;;;5076884;27;45329;-71
2022/04/16 07:06:26;;;;;;;;;4.50;3.50;;;;;;;;5072332;27;45271;-71
2022/04/16 07:08:52;;;;;;;;;4.25;4.25;;;;;;;;5075831;28;45626;-72
2022/04/16 07:11:17;;;;;;;;;5.75;4.75;;;;;;;;5076274;28;45572;-71
2022/04/16 07:13:42;;;;;;;;;6.25;5.25;;;;;;;;5076271;28;45509;-71
2022/04/16 07:16:08;;;;;;;;;4.75;3.75;;;;;;;;5075811;28;45491;-72
2022/04/16 07:18:33;;;;;;;;;4.00;4.00;;;;;;;;5067505;28;45602;-71
2022/04/16 07:20:58;;;;;;;;;5.00;3.50;;;;;;;;5075669;27;45457;-71
2022/04/16 07:23:23;;;;;;;;;6.25;5.00;;;;;;;;5068333;28;45255;-71
2022/04/16 07:25:48;;;;;;;;;4.00;3.33;;;;;;;;5067003;27;45438;-71
2022/04/16 07:28:21;;;;;;;;;4.00;4.00;;;;;;;;5072112;28;46939;-71
2022/04/16 07:30:52;;;;;;;;;4.25;4.25;;;;;;;;5074890;27;45527;-71
2022/04/16 07:33:18;;;;;;;;;5.50;5.50;;;;;;;;5075388;27;45331;-71
2022/04/16 07:35:43;;;;;;;;;2.67;2.67;;;;;;;;5075315;28;45301;-71
2022/04/16 07:38:09;;;;;;;;;3.25;2.00;;;;;;;;5076093;27;47452;-71
2022/04/16 07:40:34;;;;;;;;;4.00;4.00;;;;;;;;5076947;27;45345;-68
2022/04/16 07:43:00;;;;;;;;;5.00;5.00;;;;;;;;5075532;27;45237;-72
2022/04/16 07:45:25;;;;;;;;;6.00;6.00;;;;;;;;5076721;27;45216;-73
2022/04/16 07:47:50;;;;;;;;;11.50;11.50;;;;;;;;5074882;28;45887;-70
2022/04/16 07:50:18;;;;;;;;;15.75;15.75;;;;;;;;5074325;27;45661;-70
2022/04/16 07:52:44;;;;;;;;;14.50;14.50;;;;;;;;5075569;28;45463;-71
2022/04/16 07:55:09;;;;;;;;;16.75;16.75;;;;;;;;5076606;27;45404;-70
2022/04/16 07:57:35;;;;;;;;;12.50;10.75;;;;;;;;5074528;28;47338;-69
2022/04/16 08:00:00;;;;;;;;;14.00;14.00;;;;;;;;5074525;28;45356;-70
2022/04/16 08:02:25;;;;;;;;;16.25;15.50;;;;;;;;5073548;27;45868;-70
2022/04/16 08:04:50;;;;;;;;;23.25;23.25;;;;;;;;5075930;27;45342;-71
2022/04/16 08:07:15;;;;;;;;;18.00;17.25;;;;;;;;5074826;27;46617;-72
2022/04/16 08:09:41;;;;;;;;;20.75;19.25;;;;;;;;5074999;27;45532;-71
2022/04/16 08:12:06;;;;;;;;;15.75;15.75;;;;;;;;5075271;28;47985;-72
2022/04/16 08:14:32;;;;;;;;;13.25;12.50;;;;;;;;5074381;27;45721;-75
2022/04/16 08:16:57;;;;;;;;;9.50;9.50;;;;;;;;5075766;27;45400;-72
2022/04/16 08:19:23;;;;;;;;;8.25;7.50;;;;;;;;5074960;28;45304;-77
2022/04/16 08:21:48;;;;;;;;;9.00;9.00;;;;;;;;5074485;28;45288;-72
2022/04/16 08:24:22;;;;;;;;;8.00;8.00;;;;;;;;5074747;28;45464;-72
2022/04/16 08:26:47;;;;;;;;;9.00;9.00;;;;;;;;5073946;28;46985;-72
2022/04/16 08:29:12;;;;;;;;;8.00;8.00;;;;;;;;5074339;27;45395;-72
2022/04/16 08:31:37;;;;;;;;;7.00;7.00;;;;;;;;5075661;28;45369;-72
2022/04/16 08:34:03;;;;;;;;;8.25;8.25;;;;;;;;5074881;28;45378;-72
2022/04/16 08:36:28;;;;;;;;;7.75;7.50;;;;;;;;5069924;28;45509;-72
2022/04/16 08:38:53;;;;;;;;;8.50;6.25;;;;;;;;5072247;28;45267;-72
2022/04/16 08:41:19;;;;;;;;;7.50;6.50;;;;;;;;5056871;28;45264;-72
2022/04/16 08:43:44;;;;;;;;;8.00;8.00;;;;;;;;5074182;28;45534;-72
2022/04/16 08:46:10;;;;;;;;;8.75;7.00;;;;;;;;5065754;27;45400;-72
2022/04/16 08:48:35;;;;;;;;;6.00;6.00;;;;;;;;5069096;27;45567;-72
2022/04/16 08:51:01;;;;;;;;;6.75;6.75;;;;;;;;5076254;27;45624;-72
2022/04/16 08:53:26;;;;;;;;;6.25;6.25;;;;;;;;5071418;27;45565;-72
2022/04/16 08:55:51;;;;;;;;;5.75;5.75;;;;;;;;5075372;27;46461;-72
2022/04/16 08:58:17;;;;;;;;;7.25;6.50;;;;;;;;5074349;28;45466;-72
2022/04/16 09:00:42;;;;;;;;;10.25;8.00;;;;;;;;5073697;28;45395;-72
2022/04/16 09:03:09;;;;;;;;;4.25;4.25;;;;;;;;5076727;27;45567;-72
2022/04/16 09:05:34;;;;;;;;;6.50;5.00;;;;;;;;5073926;28;45539;-72
2022/04/16 09:08:00;;;;;;;;;6.50;5.25;;;;;;;;5075453;27;45325;-72
2022/04/16 09:10:27;;;;;;;;;8.50;8.00;;;;;;;;5073762;28;45476;-71
2022/04/16 09:12:53;;;;;;;;;8.25;6.50;;;;;;;;5074298;28;45604;-73
2022/04/16 09:15:18;;;;;;;;;5.75;5.75;;;;;;;;5073633;27;47096;-72
2022/04/16 09:17:55;;;;;;;;;5.25;5.25;;;;;;;;5070112;27;45462;-72
2022/04/16 09:20:20;;;;;;;;;4.00;4.00;;;;;;;;5074442;27;45318;-72
2022/04/16 09:22:49;;;;;;;;;4.50;4.50;;;;;;;;5075383;28;45274;-72
2022/04/16 09:25:15;;;;;;;;;3.25;3.00;;;;;;;;5072918;27;46514;-72
2022/04/16 09:27:46;;;;;;;;;6.50;5.00;;;;;;;;5073244;27;45358;-72
2022/04/16 09:30:11;;;;;;;;;4.25;4.25;;;;;;;;5070999;28;45532;-72
2022/04/16 09:32:44;;;;;;;;;5.25;5.25;;;;;;;;5073793;28;45389;-72
2022/04/16 09:35:20;;;;;;;;;5.50;5.50;;;;;;;;5073015;28;47476;-72
2022/04/16 09:37:56;;;;;;;;;7.00;5.25;;;;;;;;5076791;27;45335;-72
2022/04/16 09:40:23;;;;;;;;;5.75;5.00;;;;;;;;5077358;28;45546;-72
2022/04/16 09:42:55;;;;;;;;;3.75;3.75;;;;;;;;5076898;28;45603;-72
2022/04/16 09:45:21;;;;;;;;;5.00;5.00;;;;;;;;5077117;28;47469;-72
2022/04/16 09:47:50;;;;;;;;;4.00;4.00;;;;;;;;5079045;27;45455;-72
2022/04/16 09:50:17;;;;;;;;;3.67;3.67;;;;;;;;5077213;28;45364;-72
2022/04/16 09:52:43;;;;;;;;;4.00;4.00;;;;;;;;5077750;27;45374;-72
2022/04/16 09:55:09;;;;;;;;;5.00;5.00;;;;;;;;5077630;27;48504;-73
2022/04/16 09:57:36;;;;;;;;;4.33;4.33;;;;;;;;5072423;28;45386;-72
2022/04/16 10:00:03;;;;;;;;;5.00;3.00;;;;;;;;5078949;27;45363;-72
2022/04/16 10:02:31;;;;;;;;;5.25;5.00;;;;;;;;5077710;27;45569;-72
2022/04/16 10:04:56;;;;;;;;;4.00;4.00;;;;;;;;5077329;27;46513;-72
2022/04/16 10:07:22;;;;;;;;;5.50;5.50;;;;;;;;5072860;27;46003;-72
2022/04/16 10:09:53;;;;;;;;;4.00;4.00;;;;;;;;5072089;27;45905;-72
2022/04/16 10:15:04;;;;;;;;;5.50;5.00;;;;;;;;5076333;28;45438;-72
2022/04/16 10:17:32;;;;;;;;;3.25;3.25;;;;;;;;5076563;28;45430;-72
2022/04/16 10:20:10;;;;;;;;;4.50;4.50;;;;;;;;5078007;27;45169;-72
2022/04/16 10:22:36;;;;;;;;;4.75;4.25;;;;;;;;5076356;28;45438;-73
2022/04/16 10:25:01;;;;;;;;;5.00;4.00;;;;;;;;5076126;28;46084;-72
2022/04/16 10:27:28;;;;;;;;;5.00;5.00;;;;;;;;5076500;28;45332;-72
2022/04/16 10:29:57;;;;;;;;;3.00;3.00;;;;;;;;5076451;28;45308;-72
2022/04/16 10:32:23;;;;;;;;;3.50;3.50;;;;;;;;5075516;27;46376;-72
2022/04/16 10:34:48;;;;;;;;;4.25;4.25;;;;;;;;5074818;27;45499;-72
2022/04/16 10:37:21;;;;;;;;;3.00;3.00;;;;;;;;5070726;28;45403;-72
2022/04/16 10:39:47;;;;;;;;;4.67;3.00;;;;;;;;5070130;28;45410;-72
2022/04/16 10:42:12;;;;;;;;;5.00;4.50;;;;;;;;5077662;27;45614;-72
2022/04/16 10:44:45;;;;;;;;;5.25;5.25;;;;;;;;5076152;28;46314;-72
2022/04/16 10:47:13;;;;;;;;;4.00;3.00;;;;;;;;5073937;28;45432;-72
2022/04/16 10:49:42;;;;;;;;;4.33;4.33;;;;;;;;5074745;28;45471;-73
2022/04/16 10:52:19;;;;;;;;;4.00;2.33;;;;;;;;5076188;28;45465;-72
2022/04/16 10:54:47;;;;;;;;;3.00;3.00;;;;;;;;5072014;27;45492;-72
2022/04/16 10:57:19;;;;;;;;;4.00;4.00;;;;;;;;5075762;27;45477;-72
2022/04/16 10:59:45;;;;;;;;;5.50;3.50;;;;;;;;5078890;27;45562;-72
2022/04/16 11:02:26;;;;;;;;;4.00;4.00;;;;;;;;5075420;27;45470;-73
2022/04/16 11:05:02;;;;;;;;;7.50;5.00;;;;;;;;5077100;28;46554;-72
2022/04/16 11:07:28;;;;;;;;;4.00;4.00;;;;;;;;5075745;28;45469;-71
2022/04/16 11:09:53;;;;;;;;;4.00;4.00;;;;;;;;5072035;27;45481;-71
2022/04/16 11:12:22;;;;;;;;;5.00;4.00;;;;;;;;5074481;28;45571;-72
2022/04/16 11:14:48;;;;;;;;;5.00;5.00;;;;;;;;5078962;27;46419;-72
2022/04/16 11:17:13;;;;;;;;;6.25;4.00;;;;;;;;5075873;27;45384;-72
2022/04/16 11:19:38;;;;;;;;;4.00;4.00;;;;;;;;5077827;27;45247;-72
2022/04/16 11:22:04;;;;;;;;;4.00;4.00;;;;;;;;5075880;28;45542;-72
2022/04/16 11:24:30;;;;;;;;;3.75;3.75;;;;;;;;5075207;27;46310;-72
2022/04/16 11:35:12;;;;;;;;;5.75;4.50;;;;;;;;5065075;28;45765;-72
2022/04/16 11:37:38;;;;;;;;;4.25;4.25;;;;;;;;5072226;27;45311;-72
2022/04/16 11:40:08;;;;;;;;;3.00;3.00;;;;;;;;5074745;27;47793;-72
2022/04/16 11:42:33;;;;;;;;;4.33;4.33;;;;;;;;5078182;27;45331;-72
2022/04/16 11:44:58;;;;;;;;;3.75;3.75;;;;;;;;5075035;28;45563;-72
2022/04/16 11:47:24;;;;;;;;;4.75;4.75;;;;;;;;5075544;27;45269;-72
2022/04/16 11:49:53;;;;;;;;;7.25;7.25;;;;;;;;5076606;27;45338;-71
2022/04/16 11:52:26;;;;;;;;;3.75;3.25;;;;;;;;5075135;28;45453;-72
2022/04/16 11:55:00;;;;;;;;;3.33;3.33;;;;;;;;5069068;28;45628;-72
2022/04/16 11:57:25;;;;;;;;;3.75;3.75;;;;;;;;5074784;28;45569;-72
2022/04/16 12:00:17;;;;;;;;;5.00;4.00;;;;;;;;5075096;28;45448;-72
2022/04/16 12:02:42;;;;;;;;;4.50;4.50;;;;;;;;5060579;27;45386;-72
2022/04/16 12:05:08;;;;;;;;;5.00;5.00;;;;;;;;5075270;27;46361;-72
2022/04/16 12:07:34;;;;;;;;;3.50;3.50;;;;;;;;5076799;27;45278;-72
2022/04/16 12:10:00;;;;;;;;;5.00;5.00;;;;;;;;5074541;27;45591;-72
2022/04/16 12:12:25;;;;;;;;;5.00;5.00;;;;;;;;5075255;28;45560;-72
2022/04/16 12:14:51;;;;;;;;;4.75;4.75;;;;;;;;5074714;28;46546;-72
2022/04/16 12:17:27;;;;;;;;;6.25;6.25;;;;;;;;5075899;27;45527;-72
2022/04/16 12:20:11;;;;;;;;;5.75;5.00;;;;;;;;5076017;27;45608;-72
2022/04/16 12:22:49;;;;;;;;;9.00;5.00;;;;;;;;5074191;28;45425;-72
2022/04/16 12:25:16;;;;;;;;;4.00;4.00;;;;;;;;5074669;28;45696;-72
2022/04/16 12:27:45;;;;;;;;;7.00;5.75;;;;;;;;5076891;27;45471;-72
2022/04/16 12:30:14;;;;;;;;;6.25;6.25;;;;;;;;5076661;27;45927;-71
2022/04/16 12:32:39;;;;;;;;;4.75;4.75;;;;;;;;5073705;27;45549;-72
2022/04/16 12:35:05;;;;;;;;;6.25;5.00;;;;;;;;5075274;27;45665;-72
2022/04/16 12:37:30;;;;;;;;;4.25;4.25;;;;;;;;5075679;27;45446;-72
2022/04/16 12:39:55;;;;;;;;;4.25;4.25;;;;;;;;5074134;28;45371;-72
2022/04/16 12:42:20;;;;;;;;;5.67;5.67;;;;;;;;5074750;28;48472;-72
2022/04/16 12:44:45;;;;;;;;;5.50;5.00;;;;;;;;5076123;27;46434;-72
2022/04/16 12:47:11;;;;;;;;;4.50;4.50;;;;;;;;5071736;28;45413;-72
2022/04/16 12:49:36;;;;;;;;;5.00;5.00;;;;;;;;5075017;27;45417;-72
2022/04/16 12:52:01;;;;;;;;;3.67;3.67;;;;;;;;5072608;27;45485;-72
2022/04/16 12:54:26;;;;;;;;;5.00;5.00;;;;;;;;5074357;27;47018;-72
2022/04/16 12:56:52;;;;;;;;;4.00;4.00;;;;;;;;5067702;27;45390;-72
2022/04/16 12:59:17;;;;;;;;;5.00;5.00;;;;;;;;5075430;27;45409;-72
2022/04/16 13:01:42;;;;;;;;;4.00;4.00;;;;;;;;5075733;27;45294;-72
2022/04/16 13:04:08;;;;;;;;;3.67;3.67;;;;;;;;5073056;28;45470;-72
2022/04/16 13:06:33;;;;;;;;;6.00;5.00;;;;;;;;5072486;28;45444;-72
2022/04/16 13:09:02;;;;;;;;;4.75;4.75;;;;;;;;5073836;27;45396;-72
2022/04/16 13:11:28;;;;;;;;;4.00;4.00;;;;;;;;5076117;27;45659;-72
2022/04/16 13:13:53;;;;;;;;;6.75;6.75;;;;;;;;5080093;27;46353;-72
2022/04/16 13:16:19;;;;;;;;;6.25;6.00;;;;;;;;5077509;28;45536;-72
2022/04/16 13:18:44;;;;;;;;;4.50;4.50;;;;;;;;5077466;28;45824;-72
2022/04/16 13:21:09;;;;;;;;;3.75;3.75;;;;;;;;5080484;27;45540;-72
2022/04/16 13:23:34;;;;;;;;;4.25;4.25;;;;;;;;5078688;27;45481;-73
2022/04/16 13:25:59;;;;;;;;;5.75;5.75;;;;;;;;5078446;27;45457;-75
2022/04/16 13:28:27;;;;;;;;;9.00;8.00;;;;;;;;5076025;27;45389;-71
2022/04/16 13:30:53;;;;;;;;;10.25;9.50;;;;;;;;5071907;28;45763;-71
2022/04/16 13:33:18;;;;;;;;;9.75;9.75;;;;;;;;5078614;27;46529;-71
2022/04/16 13:35:43;;;;;;;;;9.50;9.50;;;;;;;;5077616;27;45509;-71
2022/04/16 13:38:08;;;;;;;;;11.00;11.00;;;;;;;;5078078;27;45487;-71
2022/04/16 13:43:17;;;;;;;;;9.75;9.50;;;;;;;;5076772;27;45801;-71
2022/04/16 13:45:43;;;;;;;;;12.25;11.75;;;;;;;;5076289;27;45292;-72
2022/04/16 13:48:08;;;;;;;;;10.75;9.75;;;;;;;;5078201;27;45985;-71
2022/04/16 13:50:34;;;;;;;;;7.00;7.00;;;;;;;;5078370;27;45440;-71
2022/04/16 13:53:00;;;;;;;;;12.00;12.00;;;;;;;;5077767;27;46475;-71
2022/04/16 13:55:25;;;;;;;;;11.25;8.25;;;;;;;;5078728;27;45332;-72
2022/04/16 13:57:50;;;;;;;;;11.00;10.00;;;;;;;;5079469;27;45527;-73
2022/04/16 14:00:15;;;;;;;;;10.00;9.25;;;;;;;;5075860;28;45782;-71
2022/04/16 14:02:44;;;;;;;;;10.00;10.00;;;;;;;;5076952;28;45807;-70
2022/04/16 14:07:53;;;;;;;;;10.75;9.00;;;;;;;;5076964;28;45575;-72
2022/04/16 14:10:18;;;;;;;;;9.50;9.00;;;;;;;;5077323;27;45513;-73
2022/04/16 14:12:45;;;;;;;;;8.50;8.00;;;;;;;;5078252;27;46334;-73
2022/04/16 14:15:11;;;;;;;;;9.00;7.00;;;;;;;;5084523;27;45309;-72
2022/04/16 14:17:36;;;;;;;;;10.75;7.75;;;;;;;;5078070;27;45701;-72
2022/04/16 14:20:02;;;;;;;;;10.00;8.75;;;;;;;;5077682;27;45439;-72
2022/04/16 14:22:27;;;;;;;;;7.75;6.50;;;;;;;;5077457;27;46536;-72
2022/04/16 14:24:53;;;;;;;;;9.75;7.00;;;;;;;;5077609;27;45319;-73
2022/04/16 14:27:18;;;;;;;;;8.50;8.25;;;;;;;;5077833;27;45381;-73
2022/04/16 14:29:44;;;;;;;;;7.50;7.50;;;;;;;;5076997;27;45301;-73
2022/04/16 14:32:10;;;;;;;;;7.00;7.00;;;;;;;;5077699;27;47174;-72
2022/04/16 14:34:35;;;;;;;;;8.50;7.25;;;;;;;;5077059;27;45436;-72
2022/04/16 14:37:01;;;;;;;;;9.75;9.75;;;;;;;;5077482;27;45476;-73
2022/04/16 14:39:26;;;;;;;;;8.00;7.50;;;;;;;;5078830;27;45546;-73
2022/04/16 14:41:52;;;;;;;;;7.75;7.75;;;;;;;;5076233;27;46223;-73
2022/04/16 14:44:18;;;;;;;;;11.00;10.00;;;;;;;;5077086;27;45227;-72
2022/04/16 14:46:43;;;;;;;;;9.75;7.75;;;;;;;;5077975;27;45371;-72
2022/04/16 14:49:10;;;;;;;;;10.50;10.00;;;;;;;;5078025;27;45298;-73
2022/04/16 14:51:39;;;;;;;;;12.00;10.25;;;;;;;;5076906;27;46475;-72
2022/04/16 14:54:04;;;;;;;;;9.25;8.25;;;;;;;;5076944;27;45417;-73
2022/04/16 14:56:29;;;;;;;;;9.00;8.50;;;;;;;;5078569;27;45544;-72
2022/04/16 14:58:57;;;;;;;;;10.75;9.75;;;;;;;;5077864;27;45321;-72
2022/04/16 15:01:23;;;;;;;;;11.25;10.00;;;;;;;;5076674;27;45512;-73
2022/04/16 15:03:48;;;;;;;;;8.00;6.75;;;;;;;;5076710;27;45438;-72
2022/04/16 15:06:13;;;;;;;;;11.75;9.50;;;;;;;;5077443;27;45372;-73
2022/04/16 15:08:39;;;;;;;;;7.00;6.50;;;;;;;;5078901;27;46030;-74